Etusivu
METAR-TAF:

METAR-TAF

Lentoasemat :

Ames, Iowa, Yhdysvallat

Leveyspiiri: 41-59-26N, Pituuspiiri: 093-37-08W, korkeus merenpinnasta: 288 m

Tämänhetkinen sää

Tämä raportti tehtiin 1 tunti ja 0 minuuttia sitten, kello 19.53 UTC
Tuuli 15 kn pohjoisesta puuskistuen 25 kn:hen
Lämpötila 1°C
Kosteus 47%
Ilmanpaine 1025 hPa
Näkyvyys: 16.1 km
Muutamia pilviä 4200 ft:n korkeudessa

METAR: KAMW 261953Z AUTO 35015G25KT 10SM FEW042 01/M09 A3027 RMK AO2 PK WND 34026/1918 SLP258 T00111089

Aika: 14:53 (20:53 UTC)


TAF: puuttuu

Säähavainnot ja -ennusteet yli 4000 lentoasemalta (METAR- ja TAF-raportit).

Käytössä olevat sääasemat on merkitty karttaan keltaisilla ja punaisilla pisteillä.

Aseta hiiri pisteen päälle nähdäksesi sääaseman nimen.

Klikkaa sitten nähdäksesi säähavainnot ja -ennusteet.

Kartan vaihtaminen: klikkaa mustalla rastilla varustettuja vihreitä pisteitä, niin voit zoomata sisään; viivalla varustettua vihreää pistettä, niin voit zoomata ulos tai vihreitä nuolia, niin pääset viereisille kartoille.


METAR-TAF: